Hovedside
METAR-TAF:

METAR-TAF

Lufthavner :

Kristianstad, Sverige

breddegrad: 55-55N, lengdegrad: 014-05E, høyde over havet: 23 m

Gjeldene værobservasjon

Denne rapporten ble laget for 28 minutter siden, klokken 15:50 UTC
Vind 6 kt fra Øst-sørøst, skiftende mellom Øst og Sør-sørøst
Temperatur 23°C
Luftfuktighet 57%
Trykk 1019 hPa
Sikt 10 km eller mer
ingen skyer under 1500 m og ingen bygeskyer

METAR: ESMK 241550Z 12006KT 080V160 CAVOK 23/14 Q1019

Tid: 18:18 (16:18 UTC)

Varsel

Denne rapporten ble laget for 2 timer og 14 minutter siden, klokken 14:04 UTC
Varsel gyldig fra 24. klokken 15 UTC til 24. klokken 19 UTC
Vind 5 kt fra Vest-nordvest
Sikt 10 km eller mer
Spredte skyer i en høyde av 4500 ft

TAF: ESMK 241404Z 2415/2419 29005KT 9999 SCT045

Værobservasjoner og værvarsel for over 4000 flyplasser (METAR- og TAF-rapporter).

Tilgjengelige stasjoner er representert av de røde og gule prikkene på kartet.

Hold musepekeren over prikken for å se navnet på stasjonen.

Klikk så for å se værobservasjoner og -varsler.

For å forandre kartet kan du klikke på den grønne knappen med svart kryss for å zoome inn, på den grønne knappen med strek for å zoome ut, eller på de grønne pilene for å se tilstøtende kart.


METAR-TAF: